sensor_id;sensor_type;location;lat;lon;timestamp;temperature;humidity
12893;DHT22;6514;48.606;9.222;2023-04-03T00:00:31;3.70;99.90
12893;DHT22;6514;48.606;9.222;2023-04-03T00:02:58;3.70;99.90
12893;DHT22;6514;48.606;9.222;2023-04-03T00:05:24;3.60;99.90
12893;DHT22;6514;48.606;9.222;2023-04-03T00:07:51;3.60;99.90
12893;DHT22;6514;48.606;9.222;2023-04-03T00:10:20;3.60;99.90
12893;DHT22;6514;48.606;9.222;2023-04-03T00:12:47;3.60;99.90
12893;DHT22;6514;48.606;9.222;2023-04-03T00:15:14;3.50;99.90
12893;DHT22;6514;48.606;9.222;2023-04-03T00:17:40;3.60;99.90
12893;DHT22;6514;48.606;9.222;2023-04-03T00:20:08;3.60;99.90
12893;DHT22;6514;48.606;9.222;2023-04-03T00:22:35;3.60;99.90
12893;DHT22;6514;48.606;9.222;2023-04-03T00:25:02;3.60;99.90
12893;DHT22;6514;48.606;9.222;2023-04-03T00:27:30;3.50;99.90
12893;DHT22;6514;48.606;9.222;2023-04-03T00:29:57;3.50;99.90
12893;DHT22;6514;48.606;9.222;2023-04-03T00:32:24;3.50;99.90
12893;DHT22;6514;48.606;9.222;2023-04-03T00:34:51;3.50;99.90
12893;DHT22;6514;48.606;9.222;2023-04-03T00:37:18;3.50;99.90
12893;DHT22;6514;48.606;9.222;2023-04-03T00:39:45;3.50;99.90
12893;DHT22;6514;48.606;9.222;2023-04-03T00:42:11;3.50;99.90
12893;DHT22;6514;48.606;9.222;2023-04-03T00:47:56;3.50;99.90
12893;DHT22;6514;48.606;9.222;2023-04-03T00:50:25;3.50;99.90
12893;DHT22;6514;48.606;9.222;2023-04-03T00:52:54;3.50;99.90
12893;DHT22;6514;48.606;9.222;2023-04-03T00:55:22;3.50;99.90
12893;DHT22;6514;48.606;9.222;2023-04-03T00:57:49;3.50;99.90
12893;DHT22;6514;48.606;9.222;2023-04-03T01:00:18;3.50;99.90
12893;DHT22;6514;48.606;9.222;2023-04-03T01:02:45;3.50;99.90
12893;DHT22;6514;48.606;9.222;2023-04-03T01:05:16;3.50;99.90
12893;DHT22;6514;48.606;9.222;2023-04-03T01:07:44;3.50;99.90
12893;DHT22;6514;48.606;9.222;2023-04-03T01:10:14;3.50;99.90
12893;DHT22;6514;48.606;9.222;2023-04-03T01:12:44;3.50;99.90
12893;DHT22;6514;48.606;9.222;2023-04-03T01:15:14;3.50;99.90
12893;DHT22;6514;48.606;9.222;2023-04-03T01:17:43;3.40;99.90
12893;DHT22;6514;48.606;9.222;2023-04-03T01:23:23;3.40;99.90
12893;DHT22;6514;48.606;9.222;2023-04-03T01:25:54;3.40;99.90
12893;DHT22;6514;48.606;9.222;2023-04-03T01:28:23;3.50;99.90
12893;DHT22;6514;48.606;9.222;2023-04-03T01:30:56;3.40;99.90
12893;DHT22;6514;48.606;9.222;2023-04-03T01:33:26;3.40;99.90
12893;DHT22;6514;48.606;9.222;2023-04-03T01:35:53;3.30;99.90
12893;DHT22;6514;48.606;9.222;2023-04-03T01:38:20;3.30;99.90
12893;DHT22;6514;48.606;9.222;2023-04-03T01:40:47;3.30;99.90
12893;DHT22;6514;48.606;9.222;2023-04-03T01:43:14;3.30;99.90
12893;DHT22;6514;48.606;9.222;2023-04-03T01:45:41;3.30;99.90
12893;DHT22;6514;48.606;9.222;2023-04-03T01:48:08;2.80;99.90
12893;DHT22;6514;48.606;9.222;2023-04-03T01:50:36;3.20;99.90
12893;DHT22;6514;48.606;9.222;2023-04-03T01:53:03;3.20;99.90
12893;DHT22;6514;48.606;9.222;2023-04-03T01:55:30;3.20;99.90
12893;DHT22;6514;48.606;9.222;2023-04-03T01:57:56;3.10;99.90
12893;DHT22;6514;48.606;9.222;2023-04-03T02:00:23;3.10;99.90
12893;DHT22;6514;48.606;9.222;2023-04-03T02:02:50;3.10;99.90
12893;DHT22;6514;48.606;9.222;2023-04-03T02:05:17;3.10;99.90
12893;DHT22;6514;48.606;9.222;2023-04-03T02:07:45;3.00;99.90
12893;DHT22;6514;48.606;9.222;2023-04-03T02:10:13;3.10;99.90
12893;DHT22;6514;48.606;9.222;2023-04-03T02:12:40;3.10;99.90
12893;DHT22;6514;48.606;9.222;2023-04-03T02:15:07;3.10;99.90
12893;DHT22;6514;48.606;9.222;2023-04-03T02:17:35;3.10;99.90
12893;DHT22;6514;48.606;9.222;2023-04-03T02:20:02;3.10;99.90
12893;DHT22;6514;48.606;9.222;2023-04-03T02:22:29;3.10;99.90
12893;DHT22;6514;48.606;9.222;2023-04-03T02:24:58;3.10;99.90
12893;DHT22;6514;48.606;9.222;2023-04-03T02:27:25;3.10;99.90
12893;DHT22;6514;48.606;9.222;2023-04-03T02:29:51;3.00;99.90
12893;DHT22;6514;48.606;9.222;2023-04-03T02:32:18;3.10;99.90
12893;DHT22;6514;48.606;9.222;2023-04-03T02:34:45;3.00;99.90
12893;DHT22;6514;48.606;9.222;2023-04-03T02:37:12;3.10;99.90
12893;DHT22;6514;48.606;9.222;2023-04-03T02:39:39;3.00;99.90
12893;DHT22;6514;48.606;9.222;2023-04-03T02:42:07;3.00;99.90
12893;DHT22;6514;48.606;9.222;2023-04-03T02:44:34;3.00;99.90
12893;DHT22;6514;48.606;9.222;2023-04-03T02:47:01;3.00;99.90
12893;DHT22;6514;48.606;9.222;2023-04-03T02:49:28;3.00;99.90
12893;DHT22;6514;48.606;9.222;2023-04-03T02:51:55;3.10;99.90
12893;DHT22;6514;48.606;9.222;2023-04-03T02:54:22;3.00;99.90
12893;DHT22;6514;48.606;9.222;2023-04-03T02:56:50;3.00;99.90
12893;DHT22;6514;48.606;9.222;2023-04-03T02:59:18;3.00;99.90
12893;DHT22;6514;48.606;9.222;2023-04-03T03:01:45;3.00;99.90
12893;DHT22;6514;48.606;9.222;2023-04-03T03:04:12;3.00;99.90
12893;DHT22;6514;48.606;9.222;2023-04-03T03:06:39;3.00;99.90
12893;DHT22;6514;48.606;9.222;2023-04-03T03:09:06;3.00;99.90
12893;DHT22;6514;48.606;9.222;2023-04-03T03:11:33;3.00;99.90
12893;DHT22;6514;48.606;9.222;2023-04-03T03:14:00;3.00;99.90
12893;DHT22;6514;48.606;9.222;2023-04-03T03:16:28;3.10;99.90
12893;DHT22;6514;48.606;9.222;2023-04-03T03:18:55;3.10;99.90
12893;DHT22;6514;48.606;9.222;2023-04-03T03:21:22;3.10;99.90
12893;DHT22;6514;48.606;9.222;2023-04-03T03:23:49;3.10;99.90
12893;DHT22;6514;48.606;9.222;2023-04-03T03:26:16;3.00;99.90
12893;DHT22;6514;48.606;9.222;2023-04-03T03:28:42;3.10;99.90
12893;DHT22;6514;48.606;9.222;2023-04-03T03:31:10;3.10;99.90
12893;DHT22;6514;48.606;9.222;2023-04-03T03:33:39;3.10;99.90
12893;DHT22;6514;48.606;9.222;2023-04-03T03:36:06;3.10;99.90
12893;DHT22;6514;48.606;9.222;2023-04-03T03:38:33;3.10;99.90
12893;DHT22;6514;48.606;9.222;2023-04-03T03:41:00;3.10;99.90
12893;DHT22;6514;48.606;9.222;2023-04-03T03:43:27;3.00;99.90
12893;DHT22;6514;48.606;9.222;2023-04-03T03:45:54;3.00;99.90
12893;DHT22;6514;48.606;9.222;2023-04-03T03:48:21;3.00;99.90
12893;DHT22;6514;48.606;9.222;2023-04-03T03:50:49;3.00;99.90
12893;DHT22;6514;48.606;9.222;2023-04-03T03:53:16;3.00;99.90
12893;DHT22;6514;48.606;9.222;2023-04-03T03:55:43;3.00;99.90
12893;DHT22;6514;48.606;9.222;2023-04-03T03:58:10;3.00;99.90
12893;DHT22;6514;48.606;9.222;2023-04-03T04:00:37;3.00;99.90
12893;DHT22;6514;48.606;9.222;2023-04-03T04:03:04;3.00;99.90
12893;DHT22;6514;48.606;9.222;2023-04-03T04:05:30;3.00;99.90
12893;DHT22;6514;48.606;9.222;2023-04-03T04:07:59;3.00;99.90
12893;DHT22;6514;48.606;9.222;2023-04-03T04:10:26;3.00;99.90
12893;DHT22;6514;48.606;9.222;2023-04-03T04:12:52;3.00;99.90
12893;DHT22;6514;48.606;9.222;2023-04-03T04:15:19;2.90;99.90
12893;DHT22;6514;48.606;9.222;2023-04-03T04:17:47;3.00;99.90
12893;DHT22;6514;48.606;9.222;2023-04-03T04:20:14;2.90;99.90
12893;DHT22;6514;48.606;9.222;2023-04-03T04:22:41;2.90;99.90
12893;DHT22;6514;48.606;9.222;2023-04-03T04:25:09;3.00;99.90
12893;DHT22;6514;48.606;9.222;2023-04-03T04:27:36;3.00;99.90
12893;DHT22;6514;48.606;9.222;2023-04-03T04:30:04;3.00;99.90
12893;DHT22;6514;48.606;9.222;2023-04-03T04:32:31;3.00;99.90
12893;DHT22;6514;48.606;9.222;2023-04-03T04:34:58;3.00;99.90
12893;DHT22;6514;48.606;9.222;2023-04-03T04:37:25;3.00;99.90
12893;DHT22;6514;48.606;9.222;2023-04-03T04:39:52;3.10;99.90
12893;DHT22;6514;48.606;9.222;2023-04-03T04:42:20;3.00;99.90
12893;DHT22;6514;48.606;9.222;2023-04-03T04:44:47;3.00;99.90
12893;DHT22;6514;48.606;9.222;2023-04-03T04:47:14;3.00;99.90
12893;DHT22;6514;48.606;9.222;2023-04-03T04:49:41;3.10;99.90
12893;DHT22;6514;48.606;9.222;2023-04-03T04:52:08;3.10;99.90
12893;DHT22;6514;48.606;9.222;2023-04-03T04:54:35;3.00;99.90
12893;DHT22;6514;48.606;9.222;2023-04-03T04:57:02;3.00;99.90
12893;DHT22;6514;48.606;9.222;2023-04-03T04:59:30;3.00;99.90
12893;DHT22;6514;48.606;9.222;2023-04-03T05:01:57;3.10;99.90
12893;DHT22;6514;48.606;9.222;2023-04-03T05:04:24;3.10;99.90
12893;DHT22;6514;48.606;9.222;2023-04-03T05:06:50;3.10;99.90
12893;DHT22;6514;48.606;9.222;2023-04-03T05:09:17;3.10;99.90
12893;DHT22;6514;48.606;9.222;2023-04-03T05:11:45;3.10;99.90
12893;DHT22;6514;48.606;9.222;2023-04-03T05:14:12;3.10;99.90
12893;DHT22;6514;48.606;9.222;2023-04-03T05:16:40;3.10;99.90
12893;DHT22;6514;48.606;9.222;2023-04-03T05:19:07;3.20;99.90
12893;DHT22;6514;48.606;9.222;2023-04-03T05:21:34;3.20;99.90
12893;DHT22;6514;48.606;9.222;2023-04-03T05:24:01;3.20;99.90
12893;DHT22;6514;48.606;9.222;2023-04-03T05:26:29;3.20;99.90
12893;DHT22;6514;48.606;9.222;2023-04-03T05:28:56;3.20;99.90
12893;DHT22;6514;48.606;9.222;2023-04-03T05:31:23;3.20;99.90
12893;DHT22;6514;48.606;9.222;2023-04-03T05:33:51;3.20;99.90
12893;DHT22;6514;48.606;9.222;2023-04-03T05:36:18;3.30;99.90
12893;DHT22;6514;48.606;9.222;2023-04-03T05:38:45;3.30;99.90
12893;DHT22;6514;48.606;9.222;2023-04-03T05:41:12;3.30;99.90
12893;DHT22;6514;48.606;9.222;2023-04-03T05:43:40;3.40;99.90
12893;DHT22;6514;48.606;9.222;2023-04-03T05:46:09;3.40;99.90
12893;DHT22;6514;48.606;9.222;2023-04-03T05:48:37;3.40;99.90
12893;DHT22;6514;48.606;9.222;2023-04-03T05:51:06;3.40;99.90
12893;DHT22;6514;48.606;9.222;2023-04-03T05:53:35;3.40;99.90
12893;DHT22;6514;48.606;9.222;2023-04-03T05:56:03;3.50;99.90
12893;DHT22;6514;48.606;9.222;2023-04-03T05:58:30;3.50;99.90
12893;DHT22;6514;48.606;9.222;2023-04-03T06:00:57;3.50;99.90
12893;DHT22;6514;48.606;9.222;2023-04-03T06:03:27;3.50;99.90
12893;DHT22;6514;48.606;9.222;2023-04-03T06:05:54;3.60;99.90
12893;DHT22;6514;48.606;9.222;2023-04-03T06:08:22;3.70;99.90
12893;DHT22;6514;48.606;9.222;2023-04-03T06:10:49;3.70;99.90
12893;DHT22;6514;48.606;9.222;2023-04-03T06:13:17;3.70;99.90
12893;DHT22;6514;48.606;9.222;2023-04-03T06:15:43;3.80;99.90
12893;DHT22;6514;48.606;9.222;2023-04-03T06:18:10;3.80;99.90
12893;DHT22;6514;48.606;9.222;2023-04-03T06:20:37;3.80;99.90
12893;DHT22;6514;48.606;9.222;2023-04-03T06:23:04;3.80;99.90
12893;DHT22;6514;48.606;9.222;2023-04-03T06:25:32;3.80;99.90
12893;DHT22;6514;48.606;9.222;2023-04-03T06:27:59;3.80;99.90
12893;DHT22;6514;48.606;9.222;2023-04-03T06:30:26;3.80;99.90
12893;DHT22;6514;48.606;9.222;2023-04-03T06:32:53;3.70;99.90
12893;DHT22;6514;48.606;9.222;2023-04-03T06:35:21;3.70;99.90
12893;DHT22;6514;48.606;9.222;2023-04-03T06:37:49;3.80;99.90
12893;DHT22;6514;48.606;9.222;2023-04-03T06:40:19;3.80;99.90
12893;DHT22;6514;48.606;9.222;2023-04-03T06:42:48;3.80;99.90
12893;DHT22;6514;48.606;9.222;2023-04-03T06:45:15;3.80;99.90
12893;DHT22;6514;48.606;9.222;2023-04-03T06:47:43;3.90;99.90
12893;DHT22;6514;48.606;9.222;2023-04-03T06:50:10;3.90;99.90
12893;DHT22;6514;48.606;9.222;2023-04-03T06:52:39;3.90;99.90
12893;DHT22;6514;48.606;9.222;2023-04-03T06:55:07;4.00;99.90
12893;DHT22;6514;48.606;9.222;2023-04-03T06:57:35;4.10;99.90
12893;DHT22;6514;48.606;9.222;2023-04-03T07:00:04;4.20;99.90
12893;DHT22;6514;48.606;9.222;2023-04-03T07:02:31;4.30;99.90
12893;DHT22;6514;48.606;9.222;2023-04-03T07:04:57;4.40;99.90
12893;DHT22;6514;48.606;9.222;2023-04-03T07:07:24;4.50;99.90
12893;DHT22;6514;48.606;9.222;2023-04-03T07:09:51;4.70;99.90
12893;DHT22;6514;48.606;9.222;2023-04-03T07:12:18;4.80;99.90
12893;DHT22;6514;48.606;9.222;2023-04-03T07:14:45;5.00;99.90
12893;DHT22;6514;48.606;9.222;2023-04-03T07:17:13;5.10;99.90
12893;DHT22;6514;48.606;9.222;2023-04-03T07:19:40;5.20;99.90
12893;DHT22;6514;48.606;9.222;2023-04-03T07:22:07;5.20;99.90
12893;DHT22;6514;48.606;9.222;2023-04-03T07:24:34;5.20;99.90
12893;DHT22;6514;48.606;9.222;2023-04-03T07:27:01;5.20;99.90
12893;DHT22;6514;48.606;9.222;2023-04-03T07:29:29;5.30;99.90
12893;DHT22;6514;48.606;9.222;2023-04-03T07:31:56;5.30;99.90
12893;DHT22;6514;48.606;9.222;2023-04-03T07:34:24;5.30;99.90
12893;DHT22;6514;48.606;9.222;2023-04-03T07:36:51;5.30;99.90
12893;DHT22;6514;48.606;9.222;2023-04-03T07:39:18;5.40;99.90
12893;DHT22;6514;48.606;9.222;2023-04-03T07:41:45;5.50;99.90
12893;DHT22;6514;48.606;9.222;2023-04-03T07:44:12;5.60;99.90
12893;DHT22;6514;48.606;9.222;2023-04-03T07:46:39;5.60;99.90
12893;DHT22;6514;48.606;9.222;2023-04-03T07:49:06;5.70;99.90
12893;DHT22;6514;48.606;9.222;2023-04-03T07:51:34;5.80;99.90
12893;DHT22;6514;48.606;9.222;2023-04-03T07:54:01;5.80;99.90
12893;DHT22;6514;48.606;9.222;2023-04-03T07:56:29;5.80;99.90
12893;DHT22;6514;48.606;9.222;2023-04-03T07:58:56;5.90;99.90
12893;DHT22;6514;48.606;9.222;2023-04-03T08:01:23;6.00;99.90
12893;DHT22;6514;48.606;9.222;2023-04-03T08:03:49;6.10;99.90
12893;DHT22;6514;48.606;9.222;2023-04-03T08:06:16;6.20;99.90
12893;DHT22;6514;48.606;9.222;2023-04-03T08:08:44;6.40;99.90
12893;DHT22;6514;48.606;9.222;2023-04-03T08:11:12;6.50;99.90
12893;DHT22;6514;48.606;9.222;2023-04-03T08:13:39;6.60;99.90
12893;DHT22;6514;48.606;9.222;2023-04-03T08:16:09;6.60;99.90
12893;DHT22;6514;48.606;9.222;2023-04-03T08:18:36;6.60;99.90
12893;DHT22;6514;48.606;9.222;2023-04-03T08:21:06;6.70;99.90
12893;DHT22;6514;48.606;9.222;2023-04-03T08:23:33;6.70;99.90
12893;DHT22;6514;48.606;9.222;2023-04-03T08:26:06;6.80;99.90
12893;DHT22;6514;48.606;9.222;2023-04-03T08:28:32;7.00;99.90
12893;DHT22;6514;48.606;9.222;2023-04-03T08:31:03;7.10;99.90
12893;DHT22;6514;48.606;9.222;2023-04-03T08:33:31;7.20;99.90
12893;DHT22;6514;48.606;9.222;2023-04-03T08:35:58;7.20;99.90
12893;DHT22;6514;48.606;9.222;2023-04-03T08:38:25;7.30;99.90
12893;DHT22;6514;48.606;9.222;2023-04-03T08:41:04;7.40;99.90
12893;DHT22;6514;48.606;9.222;2023-04-03T08:43:43;7.70;99.90
12893;DHT22;6514;48.606;9.222;2023-04-03T08:46:14;7.90;99.90
12893;DHT22;6514;48.606;9.222;2023-04-03T08:48:42;8.00;99.90
12893;DHT22;6514;48.606;9.222;2023-04-03T08:51:13;8.20;99.90
12893;DHT22;6514;48.606;9.222;2023-04-03T08:53:44;8.40;99.90
12893;DHT22;6514;48.606;9.222;2023-04-03T08:56:14;8.60;99.90
12893;DHT22;6514;48.606;9.222;2023-04-03T08:58:48;8.50;99.90
12893;DHT22;6514;48.606;9.222;2023-04-03T09:01:19;8.60;99.90
12893;DHT22;6514;48.606;9.222;2023-04-03T09:03:47;8.40;99.90
12893;DHT22;6514;48.606;9.222;2023-04-03T09:06:16;8.20;99.90
12893;DHT22;6514;48.606;9.222;2023-04-03T09:08:46;8.20;99.90
12893;DHT22;6514;48.606;9.222;2023-04-03T09:11:23;8.20;99.90
12893;DHT22;6514;48.606;9.222;2023-04-03T09:13:57;8.10;99.90
12893;DHT22;6514;48.606;9.222;2023-04-03T09:16:35;7.90;99.90
12893;DHT22;6514;48.606;9.222;2023-04-03T09:19:10;7.80;99.90
12893;DHT22;6514;48.606;9.222;2023-04-03T09:21:41;7.70;99.90
12893;DHT22;6514;48.606;9.222;2023-04-03T09:24:11;7.70;99.90
12893;DHT22;6514;48.606;9.222;2023-04-03T09:26:43;7.60;99.90
12893;DHT22;6514;48.606;9.222;2023-04-03T09:29:17;7.70;99.90
12893;DHT22;6514;48.606;9.222;2023-04-03T09:31:46;7.90;99.90
12893;DHT22;6514;48.606;9.222;2023-04-03T09:34:19;8.00;99.90
12893;DHT22;6514;48.606;9.222;2023-04-03T09:36:49;8.10;99.90
12893;DHT22;6514;48.606;9.222;2023-04-03T09:39:18;8.20;99.90
12893;DHT22;6514;48.606;9.222;2023-04-03T09:42:00;8.20;99.90
12893;DHT22;6514;48.606;9.222;2023-04-03T09:44:29;8.10;99.90
12893;DHT22;6514;48.606;9.222;2023-04-03T09:46:57;8.00;99.90
12893;DHT22;6514;48.606;9.222;2023-04-03T09:49:25;8.00;99.90
12893;DHT22;6514;48.606;9.222;2023-04-03T09:51:51;7.80;99.90
12893;DHT22;6514;48.606;9.222;2023-04-03T09:54:35;7.80;99.90
12893;DHT22;6514;48.606;9.222;2023-04-03T09:57:10;7.70;99.90
12893;DHT22;6514;48.606;9.222;2023-04-03T09:59:43;7.70;99.90
12893;DHT22;6514;48.606;9.222;2023-04-03T10:05:34;7.40;99.90
12893;DHT22;6514;48.606;9.222;2023-04-03T10:08:11;7.40;99.90
12893;DHT22;6514;48.606;9.222;2023-04-03T10:10:45;7.20;99.90
12893;DHT22;6514;48.606;9.222;2023-04-03T10:13:16;7.20;99.90
12893;DHT22;6514;48.606;9.222;2023-04-03T10:15:50;7.40;99.90
12893;DHT22;6514;48.606;9.222;2023-04-03T10:18:30;7.50;99.90
12893;DHT22;6514;48.606;9.222;2023-04-03T10:21:02;7.40;99.90
12893;DHT22;6514;48.606;9.222;2023-04-03T10:23:39;7.50;99.90
12893;DHT22;6514;48.606;9.222;2023-04-03T10:26:12;7.50;99.90
12893;DHT22;6514;48.606;9.222;2023-04-03T10:28:50;7.60;99.90
12893;DHT22;6514;48.606;9.222;2023-04-03T10:31:22;7.70;99.90
12893;DHT22;6514;48.606;9.222;2023-04-03T10:33:56;7.80;99.90
12893;DHT22;6514;48.606;9.222;2023-04-03T10:36:34;7.90;99.90
12893;DHT22;6514;48.606;9.222;2023-04-03T10:39:10;7.90;99.90
12893;DHT22;6514;48.606;9.222;2023-04-03T10:41:49;8.00;99.90
12893;DHT22;6514;48.606;9.222;2023-04-03T10:44:32;8.00;99.90
12893;DHT22;6514;48.606;9.222;2023-04-03T10:47:08;8.10;99.90
12893;DHT22;6514;48.606;9.222;2023-04-03T10:49:44;8.00;99.90
12893;DHT22;6514;48.606;9.222;2023-04-03T10:52:19;8.00;99.90
12893;DHT22;6514;48.606;9.222;2023-04-03T10:54:54;7.90;99.90
12893;DHT22;6514;48.606;9.222;2023-04-03T10:57:23;7.70;99.90
12893;DHT22;6514;48.606;9.222;2023-04-03T10:59:55;7.80;99.90
12893;DHT22;6514;48.606;9.222;2023-04-03T11:02:25;7.70;99.90
12893;DHT22;6514;48.606;9.222;2023-04-03T11:04:55;7.70;99.90
12893;DHT22;6514;48.606;9.222;2023-04-03T11:07:26;7.80;99.90
12893;DHT22;6514;48.606;9.222;2023-04-03T11:10:00;7.80;99.90
12893;DHT22;6514;48.606;9.222;2023-04-03T11:12:41;7.80;99.90
12893;DHT22;6514;48.606;9.222;2023-04-03T11:15:15;7.70;99.90
12893;DHT22;6514;48.606;9.222;2023-04-03T11:17:46;7.70;99.90
12893;DHT22;6514;48.606;9.222;2023-04-03T11:20:18;7.70;99.90
12893;DHT22;6514;48.606;9.222;2023-04-03T11:22:50;7.50;99.90
12893;DHT22;6514;48.606;9.222;2023-04-03T11:25:21;7.50;99.90
12893;DHT22;6514;48.606;9.222;2023-04-03T11:27:53;7.60;99.90
12893;DHT22;6514;48.606;9.222;2023-04-03T11:30:24;7.60;99.90
12893;DHT22;6514;48.606;9.222;2023-04-03T11:33:09;7.60;99.90
12893;DHT22;6514;48.606;9.222;2023-04-03T11:35:43;7.60;99.90
12893;DHT22;6514;48.606;9.222;2023-04-03T11:38:17;7.60;99.90
12893;DHT22;6514;48.606;9.222;2023-04-03T11:40:45;7.70;99.90
12893;DHT22;6514;48.606;9.222;2023-04-03T11:43:22;7.80;99.90
12893;DHT22;6514;48.606;9.222;2023-04-03T11:45:54;8.00;99.90
12893;DHT22;6514;48.606;9.222;2023-04-03T11:48:51;8.10;99.90
12893;DHT22;6514;48.606;9.222;2023-04-03T11:51:40;8.10;99.90
12893;DHT22;6514;48.606;9.222;2023-04-03T11:54:42;8.00;99.90
12893;DHT22;6514;48.606;9.222;2023-04-03T11:57:44;8.00;99.90
12893;DHT22;6514;48.606;9.222;2023-04-03T12:00:45;8.00;99.90
12893;DHT22;6514;48.606;9.222;2023-04-03T12:03:34;8.00;99.90
12893;DHT22;6514;48.606;9.222;2023-04-03T12:10:01;8.30;99.90
12893;DHT22;6514;48.606;9.222;2023-04-03T12:12:35;8.20;99.90
12893;DHT22;6514;48.606;9.222;2023-04-03T12:18:41;8.10;99.90
12893;DHT22;6514;48.606;9.222;2023-04-03T12:21:09;8.10;99.90
12893;DHT22;6514;48.606;9.222;2023-04-03T12:23:54;8.10;99.90
12893;DHT22;6514;48.606;9.222;2023-04-03T12:26:25;8.10;99.90
12893;DHT22;6514;48.606;9.222;2023-04-03T12:28:54;8.00;99.90
12893;DHT22;6514;48.606;9.222;2023-04-03T12:31:24;8.20;99.90
12893;DHT22;6514;48.606;9.222;2023-04-03T12:34:09;8.40;99.90
12893;DHT22;6514;48.606;9.222;2023-04-03T12:36:45;8.50;99.90
12893;DHT22;6514;48.606;9.222;2023-04-03T12:39:33;8.50;99.90
12893;DHT22;6514;48.606;9.222;2023-04-03T12:42:17;8.50;99.90
12893;DHT22;6514;48.606;9.222;2023-04-03T12:44:55;8.50;99.90
12893;DHT22;6514;48.606;9.222;2023-04-03T12:47:29;8.30;99.90
12893;DHT22;6514;48.606;9.222;2023-04-03T12:50:00;8.20;99.90
12893;DHT22;6514;48.606;9.222;2023-04-03T12:52:33;8.10;99.90
12893;DHT22;6514;48.606;9.222;2023-04-03T12:55:02;8.20;99.90
12893;DHT22;6514;48.606;9.222;2023-04-03T12:57:31;8.10;99.90
12893;DHT22;6514;48.606;9.222;2023-04-03T12:59:59;8.00;99.90
12893;DHT22;6514;48.606;9.222;2023-04-03T13:02:28;7.80;99.90
12893;DHT22;6514;48.606;9.222;2023-04-03T13:04:58;7.70;99.90
12893;DHT22;6514;48.606;9.222;2023-04-03T13:07:30;7.50;99.90
12893;DHT22;6514;48.606;9.222;2023-04-03T13:10:00;7.60;99.90
12893;DHT22;6514;48.606;9.222;2023-04-03T13:12:28;7.80;99.90
12893;DHT22;6514;48.606;9.222;2023-04-03T13:14:57;8.00;99.90
12893;DHT22;6514;48.606;9.222;2023-04-03T13:17:26;8.30;99.90
12893;DHT22;6514;48.606;9.222;2023-04-03T13:19:54;8.40;99.90
12893;DHT22;6514;48.606;9.222;2023-04-03T13:22:30;8.50;99.90
12893;DHT22;6514;48.606;9.222;2023-04-03T13:25:00;8.50;99.90
12893;DHT22;6514;48.606;9.222;2023-04-03T13:27:31;8.50;99.90
12893;DHT22;6514;48.606;9.222;2023-04-03T13:30:00;8.50;99.90
12893;DHT22;6514;48.606;9.222;2023-04-03T13:32:29;8.70;99.90
12893;DHT22;6514;48.606;9.222;2023-04-03T13:34:58;8.80;99.90
12893;DHT22;6514;48.606;9.222;2023-04-03T13:37:27;8.80;99.90
12893;DHT22;6514;48.606;9.222;2023-04-03T13:40:03;8.60;99.90
12893;DHT22;6514;48.606;9.222;2023-04-03T13:42:33;8.40;99.90
12893;DHT22;6514;48.606;9.222;2023-04-03T13:45:17;8.10;99.90
12893;DHT22;6514;48.606;9.222;2023-04-03T13:47:46;8.00;99.90
12893;DHT22;6514;48.606;9.222;2023-04-03T13:50:16;8.00;99.90
12893;DHT22;6514;48.606;9.222;2023-04-03T13:52:46;7.90;99.90
12893;DHT22;6514;48.606;9.222;2023-04-03T13:55:21;7.90;99.90
12893;DHT22;6514;48.606;9.222;2023-04-03T13:57:51;8.00;99.90
12893;DHT22;6514;48.606;9.222;2023-04-03T14:00:22;8.20;99.90
12893;DHT22;6514;48.606;9.222;2023-04-03T14:02:54;8.40;99.90
12893;DHT22;6514;48.606;9.222;2023-04-03T14:05:23;8.50;99.90
12893;DHT22;6514;48.606;9.222;2023-04-03T14:07:50;8.40;99.90
12893;DHT22;6514;48.606;9.222;2023-04-03T14:10:19;8.30;99.90
12893;DHT22;6514;48.606;9.222;2023-04-03T14:12:46;8.20;99.90
12893;DHT22;6514;48.606;9.222;2023-04-03T14:15:18;8.20;99.90
12893;DHT22;6514;48.606;9.222;2023-04-03T14:17:45;8.10;99.90
12893;DHT22;6514;48.606;9.222;2023-04-03T14:20:15;8.00;99.90
12893;DHT22;6514;48.606;9.222;2023-04-03T14:22:42;8.10;99.90
12893;DHT22;6514;48.606;9.222;2023-04-03T14:25:09;8.20;99.90
12893;DHT22;6514;48.606;9.222;2023-04-03T14:27:39;8.20;99.90
12893;DHT22;6514;48.606;9.222;2023-04-03T14:30:09;8.20;99.90
12893;DHT22;6514;48.606;9.222;2023-04-03T14:32:39;8.20;99.90
12893;DHT22;6514;48.606;9.222;2023-04-03T14:35:06;8.20;99.90
12893;DHT22;6514;48.606;9.222;2023-04-03T14:37:33;8.10;99.90
12893;DHT22;6514;48.606;9.222;2023-04-03T14:40:03;8.00;99.90
12893;DHT22;6514;48.606;9.222;2023-04-03T14:42:33;7.90;99.90
12893;DHT22;6514;48.606;9.222;2023-04-03T14:45:03;7.80;99.90
12893;DHT22;6514;48.606;9.222;2023-04-03T14:47:31;7.70;99.90
12893;DHT22;6514;48.606;9.222;2023-04-03T14:49:59;7.60;99.90
12893;DHT22;6514;48.606;9.222;2023-04-03T14:52:29;7.40;99.90
12893;DHT22;6514;48.606;9.222;2023-04-03T14:54:56;7.30;99.90
12893;DHT22;6514;48.606;9.222;2023-04-03T14:57:24;7.40;99.90
12893;DHT22;6514;48.606;9.222;2023-04-03T14:59:51;7.50;99.90
12893;DHT22;6514;48.606;9.222;2023-04-03T15:02:28;7.60;99.90
12893;DHT22;6514;48.606;9.222;2023-04-03T15:04:55;7.60;99.90
12893;DHT22;6514;48.606;9.222;2023-04-03T15:07:23;7.60;99.90
12893;DHT22;6514;48.606;9.222;2023-04-03T15:09:50;7.70;99.90
12893;DHT22;6514;48.606;9.222;2023-04-03T15:12:17;7.80;99.90
12893;DHT22;6514;48.606;9.222;2023-04-03T15:14:44;7.90;99.90
12893;DHT22;6514;48.606;9.222;2023-04-03T15:17:15;7.90;99.90
12893;DHT22;6514;48.606;9.222;2023-04-03T15:19:44;7.80;99.90
12893;DHT22;6514;48.606;9.222;2023-04-03T15:22:13;7.60;99.90
12893;DHT22;6514;48.606;9.222;2023-04-03T15:24:41;7.50;99.90
12893;DHT22;6514;48.606;9.222;2023-04-03T15:27:09;7.50;99.90
12893;DHT22;6514;48.606;9.222;2023-04-03T15:29:36;7.40;99.90
12893;DHT22;6514;48.606;9.222;2023-04-03T15:32:03;7.40;99.90
12893;DHT22;6514;48.606;9.222;2023-04-03T15:34:30;7.40;99.90
12893;DHT22;6514;48.606;9.222;2023-04-03T15:36:59;7.30;99.90
12893;DHT22;6514;48.606;9.222;2023-04-03T15:39:26;7.30;99.90
12893;DHT22;6514;48.606;9.222;2023-04-03T15:41:53;7.20;99.90
12893;DHT22;6514;48.606;9.222;2023-04-03T15:44:22;7.30;99.90
12893;DHT22;6514;48.606;9.222;2023-04-03T15:46:49;7.40;99.90
12893;DHT22;6514;48.606;9.222;2023-04-03T15:49:16;7.30;99.90
12893;DHT22;6514;48.606;9.222;2023-04-03T15:51:44;7.40;99.90
12893;DHT22;6514;48.606;9.222;2023-04-03T15:54:12;7.40;99.90
12893;DHT22;6514;48.606;9.222;2023-04-03T15:56:39;7.40;99.90
12893;DHT22;6514;48.606;9.222;2023-04-03T15:59:06;7.40;99.90
12893;DHT22;6514;48.606;9.222;2023-04-03T16:01:33;7.50;99.90
12893;DHT22;6514;48.606;9.222;2023-04-03T16:04:00;7.50;99.90
12893;DHT22;6514;48.606;9.222;2023-04-03T16:06:27;7.40;99.90
12893;DHT22;6514;48.606;9.222;2023-04-03T16:08:56;7.40;99.90
12893;DHT22;6514;48.606;9.222;2023-04-03T16:11:25;7.40;99.90
12893;DHT22;6514;48.606;9.222;2023-04-03T16:13:52;7.50;99.90
12893;DHT22;6514;48.606;9.222;2023-04-03T16:16:19;7.60;99.90
12893;DHT22;6514;48.606;9.222;2023-04-03T16:18:47;7.50;99.90
12893;DHT22;6514;48.606;9.222;2023-04-03T16:21:16;7.40;99.90
12893;DHT22;6514;48.606;9.222;2023-04-03T16:23:43;7.20;99.90
12893;DHT22;6514;48.606;9.222;2023-04-03T16:26:10;7.10;99.90
12893;DHT22;6514;48.606;9.222;2023-04-03T16:28:39;6.90;99.90
12893;DHT22;6514;48.606;9.222;2023-04-03T16:31:07;6.80;99.90
12893;DHT22;6514;48.606;9.222;2023-04-03T16:33:34;6.70;99.90